Arklow Rogue — EIGD — position and weather

sailwx.info

Track history (hours):
 
Tides and Currents Weather Stations Pressure Air Temp Water Temp Dewpoint Dewpoint Depression Visibility Wind Speed Wind Dir Waves Ship Positions

Arklow Rogue

Last reported at 2016-Jul-01 20:33 UTC. Time now 2016-Jul-02 04:02 UTC.
Position N 48°20' W 005°31'.

Length 90 m; draft 3.4 m.

Type: Cargo ship. MMSI: 250000960.

Date/timePositionNaut miles runAvg speedWind from/ knotsBaromVisibWave heightAir tempDewpointWater temp
2016-Jul-01 20:33N 48°20' W 005°31'9 8.5
2016-Jul-01 19:33N 48°12' W 005°25'28 8.5
2016-Jul-01 16:17N 47°48' W 005°04'41 8.5
2016-Jul-01 11:25N 47°23' W 004°17'8 9.2
2016-Jul-01 10:32N 47°22' W 004°05'10 9.8
2016-Jul-01 09:33N 47°21' W 003°50'10 9.7
2016-Jul-01 08:33N 47°14' W 003°40'1010.3
2016-Jul-01 07:33N 47°05' W 003°33'1110.1
2016-Jul-01 06:28N 46°56' W 003°24'910.4
2016-Jul-01 05:34N 46°50' W 003°14'  
2016-Jun-28 18:33N 44°01' W 007°13'1212.3
2016-Jun-28 17:34N 43°57' W 007°29'  
2016-Jun-23 15:34N 49°05' W 005°16'1010.2
2016-Jun-23 14:33N 49°10' W 005°02'1111.0
2016-Jun-23 13:32N 49°16' W 004°47'1411.7
2016-Jun-23 12:23N 49°23' W 004°29'1111.6
2016-Jun-23 11:28N 49°28' W 004°16'1111.1
2016-Jun-23 10:30N 49°34' W 004°01'2110.0
2016-Jun-23 08:23N 49°45' W 003°34'8 9.6
2016-Jun-23 07:32N 49°49' W 003°23'2110.5
2016-Jun-23 05:33N 49°60' W 002°55'9311.1
2016-Jun-22 21:10N 50°26' W 000°35'6 8.4
2016-Jun-22 20:31N 50°27' W 000°26'1010.0
2016-Jun-22 19:33N 50°30' W 000°12'1211.3
2016-Jun-22 18:32N 50°33' E 000°05'4011.8
2016-Jun-22 15:09N 50°51' E 001°02'610.2
2016-Jun-22 14:32N 50°55' E 001°10'9 9.1
2016-Jun-22 13:33N 51°00' E 001°20'9 8.6
2016-Jun-22 12:33N 51°06' E 001°31'10 9.8
2016-Jun-22 11:34N 51°14' E 001°39'1212.4
2016-Jun-22 10:33N 51°26' E 001°44'1413.6
2016-Jun-22 09:33N 51°40' E 001°44'1313.0
2016-Jun-22 08:33N 51°53' E 001°46'1312.8
2016-Jun-22 07:33N 52°06' E 001°48'3510.2
2016-Jun-22 04:06N 52°41' E 001°55'5 7.8
2016-Jun-22 03:29N 52°46' E 001°54'8 8.5
2016-Jun-22 02:33N 52°51' E 001°44'8 8.4
2016-Jun-22 01:33N 52°56' E 001°34'9 9.2
2016-Jun-22 00:34N 53°04' E 001°24'1010.2
2016-Jun-21 23:33N 53°12' E 001°16'1411.0
2016-Jun-21 22:18N 53°24' E 001°05'  
Track history (hours):
 
Tides and Currents Weather Stations Pressure Air Temp Water Temp Dewpoint Dewpoint Depression Visibility Wind Speed Wind Dir Waves Ship Positions

Arklow Rogue

Last reported at 2016-Jul-01 20:33 UTC. Time now 2016-Jul-02 04:02 UTC.
Position N 48°20' W 005°31'.

Length 90 m; draft 3.4 m.

Type: Cargo ship. MMSI: 250000960.

Date/timePositionNaut miles runAvg speedWind from/ knotsBaromVisibWave heightAir tempDewpointWater temp
2016-Jul-01 20:33N 48°20' W 005°31'9 8.5
2016-Jul-01 19:33N 48°12' W 005°25'28 8.5
2016-Jul-01 16:17N 47°48' W 005°04'41 8.5
2016-Jul-01 11:25N 47°23' W 004°17'8 9.2
2016-Jul-01 10:32N 47°22' W 004°05'10 9.8
2016-Jul-01 09:33N 47°21' W 003°50'10 9.7
2016-Jul-01 08:33N 47°14' W 003°40'1010.3
2016-Jul-01 07:33N 47°05' W 003°33'1110.1
2016-Jul-01 06:28N 46°56' W 003°24'910.4
2016-Jul-01 05:34N 46°50' W 003°14'  
2016-Jun-28 18:33N 44°01' W 007°13'1212.3
2016-Jun-28 17:34N 43°57' W 007°29'  
2016-Jun-23 15:34N 49°05' W 005°16'1010.2
2016-Jun-23 14:33N 49°10' W 005°02'1111.0
2016-Jun-23 13:32N 49°16' W 004°47'1411.7
2016-Jun-23 12:23N 49°23' W 004°29'1111.6
2016-Jun-23 11:28N 49°28' W 004°16'1111.1
2016-Jun-23 10:30N 49°34' W 004°01'2110.0
2016-Jun-23 08:23N 49°45' W 003°34'8 9.6
2016-Jun-23 07:32N 49°49' W 003°23'2110.5
2016-Jun-23 05:33N 49°60' W 002°55'9311.1
2016-Jun-22 21:10N 50°26' W 000°35'6 8.4
2016-Jun-22 20:31N 50°27' W 000°26'1010.0
2016-Jun-22 19:33N 50°30' W 000°12'1211.3
2016-Jun-22 18:32N 50°33' E 000°05'4011.8
2016-Jun-22 15:09N 50°51' E 001°02'610.2
2016-Jun-22 14:32N 50°55' E 001°10'9 9.1
2016-Jun-22 13:33N 51°00' E 001°20'9 8.6
2016-Jun-22 12:33N 51°06' E 001°31'10 9.8
2016-Jun-22 11:34N 51°14' E 001°39'1212.4
2016-Jun-22 10:33N 51°26' E 001°44'1413.6
2016-Jun-22 09:33N 51°40' E 001°44'1313.0
2016-Jun-22 08:33N 51°53' E 001°46'1312.8
2016-Jun-22 07:33N 52°06' E 001°48'3510.2
2016-Jun-22 04:06N 52°41' E 001°55'5 7.8
2016-Jun-22 03:29N 52°46' E 001°54'8 8.5
2016-Jun-22 02:33N 52°51' E 001°44'8 8.4
2016-Jun-22 01:33N 52°56' E 001°34'9 9.2
2016-Jun-22 00:34N 53°04' E 001°24'1010.2
2016-Jun-21 23:33N 53°12' E 001°16'1411.0
2016-Jun-21 22:18N 53°24' E 001°05'  

Dump ship's entire track history